sensor_id;sensor_type;location;lat;lon;timestamp;temperature;humidity
25352;DHT22;13304;48.464;8.712;2024-01-10T00:02:00;-1.40;80.30
25352;DHT22;13304;48.464;8.712;2024-01-10T00:04:28;-1.40;80.40
25352;DHT22;13304;48.464;8.712;2024-01-10T00:06:54;-1.40;80.40
25352;DHT22;13304;48.464;8.712;2024-01-10T00:09:20;-1.40;80.60
25352;DHT22;13304;48.464;8.712;2024-01-10T00:11:45;-1.40;80.60
25352;DHT22;13304;48.464;8.712;2024-01-10T00:14:11;-1.40;80.70
25352;DHT22;13304;48.464;8.712;2024-01-10T00:16:36;-1.40;80.70
25352;DHT22;13304;48.464;8.712;2024-01-10T00:19:02;-1.40;80.70
25352;DHT22;13304;48.464;8.712;2024-01-10T00:21:28;-1.40;80.90
25352;DHT22;13304;48.464;8.712;2024-01-10T00:23:54;-1.30;81.10
25352;DHT22;13304;48.464;8.712;2024-01-10T00:26:20;-1.30;81.20
25352;DHT22;13304;48.464;8.712;2024-01-10T00:28:46;-1.30;81.20
25352;DHT22;13304;48.464;8.712;2024-01-10T00:31:12;-1.30;81.30
25352;DHT22;13304;48.464;8.712;2024-01-10T00:33:39;-1.20;81.30
25352;DHT22;13304;48.464;8.712;2024-01-10T00:36:05;-1.20;81.30
25352;DHT22;13304;48.464;8.712;2024-01-10T00:38:31;-1.20;81.30
25352;DHT22;13304;48.464;8.712;2024-01-10T00:40:57;-1.20;81.40
25352;DHT22;13304;48.464;8.712;2024-01-10T00:43:22;-1.10;81.50
25352;DHT22;13304;48.464;8.712;2024-01-10T00:45:48;-1.10;81.60
25352;DHT22;13304;48.464;8.712;2024-01-10T00:48:14;-1.10;81.50
25352;DHT22;13304;48.464;8.712;2024-01-10T00:50:39;-1.00;81.60
25352;DHT22;13304;48.464;8.712;2024-01-10T00:53:05;-1.00;81.60
25352;DHT22;13304;48.464;8.712;2024-01-10T00:55:31;-1.00;81.60
25352;DHT22;13304;48.464;8.712;2024-01-10T00:57:56;-1.00;81.60
25352;DHT22;13304;48.464;8.712;2024-01-10T01:00:22;-0.90;81.70
25352;DHT22;13304;48.464;8.712;2024-01-10T01:02:47;-0.90;81.70
25352;DHT22;13304;48.464;8.712;2024-01-10T01:05:16;-0.90;81.70
25352;DHT22;13304;48.464;8.712;2024-01-10T01:07:41;-0.80;81.80
25352;DHT22;13304;48.464;8.712;2024-01-10T01:10:07;-0.80;81.70
25352;DHT22;13304;48.464;8.712;2024-01-10T01:12:34;-0.80;81.60
25352;DHT22;13304;48.464;8.712;2024-01-10T01:15:00;-0.80;81.40
25352;DHT22;13304;48.464;8.712;2024-01-10T01:17:25;-0.70;81.50
25352;DHT22;13304;48.464;8.712;2024-01-10T01:19:51;-0.70;81.50
25352;DHT22;13304;48.464;8.712;2024-01-10T01:22:17;-0.70;81.50
25352;DHT22;13304;48.464;8.712;2024-01-10T01:24:42;-0.70;81.50
25352;DHT22;13304;48.464;8.712;2024-01-10T01:27:09;-0.70;81.60
25352;DHT22;13304;48.464;8.712;2024-01-10T01:29:34;-0.70;81.70
25352;DHT22;13304;48.464;8.712;2024-01-10T01:32:00;-0.70;81.70
25352;DHT22;13304;48.464;8.712;2024-01-10T01:34:26;-0.60;81.80
25352;DHT22;13304;48.464;8.712;2024-01-10T01:36:51;-0.60;81.90
25352;DHT22;13304;48.464;8.712;2024-01-10T01:39:18;-0.60;81.80
25352;DHT22;13304;48.464;8.712;2024-01-10T01:41:43;-0.60;81.70
25352;DHT22;13304;48.464;8.712;2024-01-10T01:44:09;-0.50;81.70
25352;DHT22;13304;48.464;8.712;2024-01-10T01:46:35;-0.50;81.70
25352;DHT22;13304;48.464;8.712;2024-01-10T01:49:01;-0.50;81.50
25352;DHT22;13304;48.464;8.712;2024-01-10T01:51:27;-0.50;81.60
25352;DHT22;13304;48.464;8.712;2024-01-10T01:53:54;-0.50;81.50
25352;DHT22;13304;48.464;8.712;2024-01-10T01:56:20;-0.50;81.40
25352;DHT22;13304;48.464;8.712;2024-01-10T01:58:46;-0.50;81.50
25352;DHT22;13304;48.464;8.712;2024-01-10T02:01:13;-0.50;81.50
25352;DHT22;13304;48.464;8.712;2024-01-10T02:03:40;-0.50;82.10
25352;DHT22;13304;48.464;8.712;2024-01-10T02:06:06;-0.50;81.30
25352;DHT22;13304;48.464;8.712;2024-01-10T02:08:33;-0.50;81.30
25352;DHT22;13304;48.464;8.712;2024-01-10T02:11:03;-0.50;81.50
25352;DHT22;13304;48.464;8.712;2024-01-10T02:13:29;-0.50;81.40
25352;DHT22;13304;48.464;8.712;2024-01-10T02:15:56;-0.50;81.60
25352;DHT22;13304;48.464;8.712;2024-01-10T02:18:22;-0.40;81.70
25352;DHT22;13304;48.464;8.712;2024-01-10T02:20:47;-0.50;81.50
25352;DHT22;13304;48.464;8.712;2024-01-10T02:23:13;-0.50;81.40
25352;DHT22;13304;48.464;8.712;2024-01-10T02:25:40;-0.50;81.50
25352;DHT22;13304;48.464;8.712;2024-01-10T02:28:06;-0.50;81.50
25352;DHT22;13304;48.464;8.712;2024-01-10T02:30:33;-0.50;81.50
25352;DHT22;13304;48.464;8.712;2024-01-10T02:32:58;-0.50;81.60
25352;DHT22;13304;48.464;8.712;2024-01-10T02:35:24;-0.50;81.70
25352;DHT22;13304;48.464;8.712;2024-01-10T02:37:50;-0.50;81.60
25352;DHT22;13304;48.464;8.712;2024-01-10T02:40:17;-0.50;81.70
25352;DHT22;13304;48.464;8.712;2024-01-10T02:42:42;-0.50;81.50
25352;DHT22;13304;48.464;8.712;2024-01-10T02:45:09;-0.50;81.60
25352;DHT22;13304;48.464;8.712;2024-01-10T02:47:35;-0.50;81.60
25352;DHT22;13304;48.464;8.712;2024-01-10T02:50:02;-0.50;81.60
25352;DHT22;13304;48.464;8.712;2024-01-10T02:52:28;-0.50;81.80
25352;DHT22;13304;48.464;8.712;2024-01-10T02:54:54;-0.50;81.90
25352;DHT22;13304;48.464;8.712;2024-01-10T02:57:19;-0.50;82.00
25352;DHT22;13304;48.464;8.712;2024-01-10T02:59:45;-0.50;82.10
25352;DHT22;13304;48.464;8.712;2024-01-10T03:02:11;-0.50;81.90
25352;DHT22;13304;48.464;8.712;2024-01-10T03:04:37;-0.50;81.70
25352;DHT22;13304;48.464;8.712;2024-01-10T03:07:03;-0.50;81.80
25352;DHT22;13304;48.464;8.712;2024-01-10T03:09:28;-0.50;81.50
25352;DHT22;13304;48.464;8.712;2024-01-10T03:11:54;-0.50;82.50
25352;DHT22;13304;48.464;8.712;2024-01-10T03:14:20;-0.40;81.80
25352;DHT22;13304;48.464;8.712;2024-01-10T03:16:45;-0.50;81.80
25352;DHT22;13304;48.464;8.712;2024-01-10T03:19:11;-0.40;82.00
25352;DHT22;13304;48.464;8.712;2024-01-10T03:21:37;-0.40;82.00
25352;DHT22;13304;48.464;8.712;2024-01-10T03:24:03;-0.40;82.10
25352;DHT22;13304;48.464;8.712;2024-01-10T03:26:28;-0.40;82.00
25352;DHT22;13304;48.464;8.712;2024-01-10T03:28:56;-0.30;82.10
25352;DHT22;13304;48.464;8.712;2024-01-10T03:31:22;-0.30;82.10
25352;DHT22;13304;48.464;8.712;2024-01-10T03:33:48;-0.30;82.00
25352;DHT22;13304;48.464;8.712;2024-01-10T03:36:18;-0.30;81.90
25352;DHT22;13304;48.464;8.712;2024-01-10T03:38:43;-0.20;81.90
25352;DHT22;13304;48.464;8.712;2024-01-10T03:41:17;-0.30;81.60
25352;DHT22;13304;48.464;8.712;2024-01-10T03:43:43;-0.30;81.70
25352;DHT22;13304;48.464;8.712;2024-01-10T03:46:09;-0.20;81.90
25352;DHT22;13304;48.464;8.712;2024-01-10T03:48:35;-0.20;81.90
25352;DHT22;13304;48.464;8.712;2024-01-10T03:51:01;-0.20;81.90
25352;DHT22;13304;48.464;8.712;2024-01-10T03:53:27;-0.20;82.10
25352;DHT22;13304;48.464;8.712;2024-01-10T03:55:52;-0.10;82.00
25352;DHT22;13304;48.464;8.712;2024-01-10T03:58:18;-0.10;82.00
25352;DHT22;13304;48.464;8.712;2024-01-10T04:00:44;-0.10;81.90
25352;DHT22;13304;48.464;8.712;2024-01-10T04:03:09;0.00;81.80
25352;DHT22;13304;48.464;8.712;2024-01-10T04:05:35;0.00;81.60
25352;DHT22;13304;48.464;8.712;2024-01-10T04:08:00;0.00;81.40
25352;DHT22;13304;48.464;8.712;2024-01-10T04:10:26;0.00;81.30
25352;DHT22;13304;48.464;8.712;2024-01-10T04:12:52;0.00;81.20
25352;DHT22;13304;48.464;8.712;2024-01-10T04:15:17;0.00;81.00
25352;DHT22;13304;48.464;8.712;2024-01-10T04:17:43;0.00;81.00
25352;DHT22;13304;48.464;8.712;2024-01-10T04:20:09;-0.10;80.90
25352;DHT22;13304;48.464;8.712;2024-01-10T04:22:35;-0.10;81.00
25352;DHT22;13304;48.464;8.712;2024-01-10T04:25:04;-0.10;81.00
25352;DHT22;13304;48.464;8.712;2024-01-10T04:27:30;-0.10;81.10
25352;DHT22;13304;48.464;8.712;2024-01-10T04:29:56;-0.10;81.20
25352;DHT22;13304;48.464;8.712;2024-01-10T04:32:21;-0.10;81.30
25352;DHT22;13304;48.464;8.712;2024-01-10T04:34:47;-0.10;81.20
25352;DHT22;13304;48.464;8.712;2024-01-10T04:37:13;-0.10;81.30
25352;DHT22;13304;48.464;8.712;2024-01-10T04:39:39;-0.10;81.60
25352;DHT22;13304;48.464;8.712;2024-01-10T04:42:05;-0.10;81.60
25352;DHT22;13304;48.464;8.712;2024-01-10T04:44:31;0.00;81.60
25352;DHT22;13304;48.464;8.712;2024-01-10T04:46:57;0.00;81.30
25352;DHT22;13304;48.464;8.712;2024-01-10T04:49:22;0.00;81.20
25352;DHT22;13304;48.464;8.712;2024-01-10T04:51:49;0.00;80.80
25352;DHT22;13304;48.464;8.712;2024-01-10T04:54:15;0.00;80.80
25352;DHT22;13304;48.464;8.712;2024-01-10T04:56:41;0.00;80.80
25352;DHT22;13304;48.464;8.712;2024-01-10T04:59:06;0.00;80.90
25352;DHT22;13304;48.464;8.712;2024-01-10T05:01:32;0.00;81.80
25352;DHT22;13304;48.464;8.712;2024-01-10T05:03:58;0.00;80.80
25352;DHT22;13304;48.464;8.712;2024-01-10T05:06:24;0.00;80.70
25352;DHT22;13304;48.464;8.712;2024-01-10T05:08:50;0.00;80.60
25352;DHT22;13304;48.464;8.712;2024-01-10T05:11:16;0.00;80.60
25352;DHT22;13304;48.464;8.712;2024-01-10T05:13:44;0.00;80.60
25352;DHT22;13304;48.464;8.712;2024-01-10T05:16:10;-0.10;80.50
25352;DHT22;13304;48.464;8.712;2024-01-10T05:18:35;-0.10;80.60
25352;DHT22;13304;48.464;8.712;2024-01-10T05:21:01;-0.10;80.60
25352;DHT22;13304;48.464;8.712;2024-01-10T05:23:27;-0.10;81.30
25352;DHT22;13304;48.464;8.712;2024-01-10T05:25:53;-0.10;80.50
25352;DHT22;13304;48.464;8.712;2024-01-10T05:28:19;-0.10;80.60
25352;DHT22;13304;48.464;8.712;2024-01-10T05:30:45;-0.10;80.50
25352;DHT22;13304;48.464;8.712;2024-01-10T05:33:11;-0.10;80.50
25352;DHT22;13304;48.464;8.712;2024-01-10T05:35:39;-0.10;80.50
25352;DHT22;13304;48.464;8.712;2024-01-10T05:38:05;-0.10;80.50
25352;DHT22;13304;48.464;8.712;2024-01-10T05:40:31;-0.20;80.50
25352;DHT22;13304;48.464;8.712;2024-01-10T05:43:00;-0.20;80.40
25352;DHT22;13304;48.464;8.712;2024-01-10T05:45:26;-0.20;80.50
25352;DHT22;13304;48.464;8.712;2024-01-10T05:47:52;-0.30;81.20
25352;DHT22;13304;48.464;8.712;2024-01-10T05:50:18;-0.30;80.40
25352;DHT22;13304;48.464;8.712;2024-01-10T05:52:45;-0.30;80.30
25352;DHT22;13304;48.464;8.712;2024-01-10T05:55:11;-0.30;80.20
25352;DHT22;13304;48.464;8.712;2024-01-10T05:57:37;-0.40;80.10
25352;DHT22;13304;48.464;8.712;2024-01-10T06:00:03;-0.40;81.00
25352;DHT22;13304;48.464;8.712;2024-01-10T06:02:30;-0.40;80.40
25352;DHT22;13304;48.464;8.712;2024-01-10T06:04:56;-0.50;80.50
25352;DHT22;13304;48.464;8.712;2024-01-10T06:07:21;-0.50;80.60
25352;DHT22;13304;48.464;8.712;2024-01-10T06:09:47;-0.50;80.70
25352;DHT22;13304;48.464;8.712;2024-01-10T06:12:13;-0.50;80.70
25352;DHT22;13304;48.464;8.712;2024-01-10T06:14:39;-0.50;80.80
25352;DHT22;13304;48.464;8.712;2024-01-10T06:17:04;-0.50;80.80
25352;DHT22;13304;48.464;8.712;2024-01-10T06:19:31;-0.60;80.70
25352;DHT22;13304;48.464;8.712;2024-01-10T06:21:57;-0.60;80.70
25352;DHT22;13304;48.464;8.712;2024-01-10T06:24:23;-0.60;80.70
25352;DHT22;13304;48.464;8.712;2024-01-10T06:26:49;-0.60;80.70
25352;DHT22;13304;48.464;8.712;2024-01-10T06:29:18;-0.60;80.70
25352;DHT22;13304;48.464;8.712;2024-01-10T06:31:43;-0.60;80.70
25352;DHT22;13304;48.464;8.712;2024-01-10T06:34:09;-0.70;80.70
25352;DHT22;13304;48.464;8.712;2024-01-10T06:36:35;-0.70;80.60
25352;DHT22;13304;48.464;8.712;2024-01-10T06:39:00;-0.70;80.50
25352;DHT22;13304;48.464;8.712;2024-01-10T06:41:26;-0.70;80.30
25352;DHT22;13304;48.464;8.712;2024-01-10T06:43:52;-0.70;80.30
25352;DHT22;13304;48.464;8.712;2024-01-10T06:46:19;-0.80;80.20
25352;DHT22;13304;48.464;8.712;2024-01-10T06:48:45;-0.80;80.20
25352;DHT22;13304;48.464;8.712;2024-01-10T06:51:14;-0.80;80.10
25352;DHT22;13304;48.464;8.712;2024-01-10T06:53:39;-0.90;80.00
25352;DHT22;13304;48.464;8.712;2024-01-10T06:56:06;-1.00;80.10
25352;DHT22;13304;48.464;8.712;2024-01-10T06:58:32;-0.90;80.30
25352;DHT22;13304;48.464;8.712;2024-01-10T07:00:58;-1.00;80.40
25352;DHT22;13304;48.464;8.712;2024-01-10T07:03:26;-1.00;80.40
25352;DHT22;13304;48.464;8.712;2024-01-10T07:05:52;-1.00;80.60
25352;DHT22;13304;48.464;8.712;2024-01-10T07:08:17;-1.00;80.70
25352;DHT22;13304;48.464;8.712;2024-01-10T07:10:43;-1.00;80.70
25352;DHT22;13304;48.464;8.712;2024-01-10T07:13:09;-1.00;80.80
25352;DHT22;13304;48.464;8.712;2024-01-10T07:15:35;-1.00;80.80
25352;DHT22;13304;48.464;8.712;2024-01-10T07:18:01;-1.00;80.80
25352;DHT22;13304;48.464;8.712;2024-01-10T07:20:26;-1.10;80.70
25352;DHT22;13304;48.464;8.712;2024-01-10T07:22:52;-1.10;80.70
25352;DHT22;13304;48.464;8.712;2024-01-10T07:25:18;-1.00;80.80
25352;DHT22;13304;48.464;8.712;2024-01-10T07:27:44;-1.10;80.70
25352;DHT22;13304;48.464;8.712;2024-01-10T07:30:10;-1.10;80.60
25352;DHT22;13304;48.464;8.712;2024-01-10T07:32:41;-1.10;80.50
25352;DHT22;13304;48.464;8.712;2024-01-10T07:35:07;-1.20;80.40
25352;DHT22;13304;48.464;8.712;2024-01-10T07:37:39;-1.10;80.50
25352;DHT22;13304;48.464;8.712;2024-01-10T07:40:05;-1.20;80.50
25352;DHT22;13304;48.464;8.712;2024-01-10T07:42:34;-1.20;80.50
25352;DHT22;13304;48.464;8.712;2024-01-10T07:45:01;-1.20;80.40
25352;DHT22;13304;48.464;8.712;2024-01-10T07:47:34;-1.20;80.50
25352;DHT22;13304;48.464;8.712;2024-01-10T07:50:04;-1.20;80.50
25352;DHT22;13304;48.464;8.712;2024-01-10T07:52:29;-1.30;80.40
25352;DHT22;13304;48.464;8.712;2024-01-10T07:54:55;-1.20;80.70
25352;DHT22;13304;48.464;8.712;2024-01-10T07:57:21;-1.30;80.50
25352;DHT22;13304;48.464;8.712;2024-01-10T07:59:46;-1.30;80.50
25352;DHT22;13304;48.464;8.712;2024-01-10T08:02:12;-1.30;80.50
25352;DHT22;13304;48.464;8.712;2024-01-10T08:04:38;-1.30;80.60
25352;DHT22;13304;48.464;8.712;2024-01-10T08:07:04;-1.30;80.70
25352;DHT22;13304;48.464;8.712;2024-01-10T08:09:29;-1.30;80.70
25352;DHT22;13304;48.464;8.712;2024-01-10T08:11:55;-1.30;80.90
25352;DHT22;13304;48.464;8.712;2024-01-10T08:14:21;-1.30;81.10
25352;DHT22;13304;48.464;8.712;2024-01-10T08:16:46;-1.30;81.10
25352;DHT22;13304;48.464;8.712;2024-01-10T08:19:13;-1.30;81.10
25352;DHT22;13304;48.464;8.712;2024-01-10T08:21:39;-1.30;81.30
25352;DHT22;13304;48.464;8.712;2024-01-10T08:24:05;-1.30;81.50
25352;DHT22;13304;48.464;8.712;2024-01-10T08:26:31;-1.20;81.60
25352;DHT22;13304;48.464;8.712;2024-01-10T08:28:57;-1.20;81.60
25352;DHT22;13304;48.464;8.712;2024-01-10T08:31:23;-1.20;81.60
25352;DHT22;13304;48.464;8.712;2024-01-10T08:33:49;-1.10;81.60
25352;DHT22;13304;48.464;8.712;2024-01-10T08:36:15;-1.10;81.70
25352;DHT22;13304;48.464;8.712;2024-01-10T08:38:41;-1.10;81.70
25352;DHT22;13304;48.464;8.712;2024-01-10T08:41:10;-1.10;81.70
25352;DHT22;13304;48.464;8.712;2024-01-10T08:43:39;-1.10;81.70
25352;DHT22;13304;48.464;8.712;2024-01-10T08:46:08;-1.00;81.90
25352;DHT22;13304;48.464;8.712;2024-01-10T08:48:33;-1.00;82.00
25352;DHT22;13304;48.464;8.712;2024-01-10T08:50:59;-1.00;82.00
25352;DHT22;13304;48.464;8.712;2024-01-10T08:53:25;-1.00;82.10
25352;DHT22;13304;48.464;8.712;2024-01-10T08:55:50;-0.90;82.30
25352;DHT22;13304;48.464;8.712;2024-01-10T08:58:16;-0.90;82.40
25352;DHT22;13304;48.464;8.712;2024-01-10T09:00:42;-0.90;82.50
25352;DHT22;13304;48.464;8.712;2024-01-10T09:03:07;-0.80;82.50
25352;DHT22;13304;48.464;8.712;2024-01-10T09:05:34;-0.80;82.50
25352;DHT22;13304;48.464;8.712;2024-01-10T09:08:00;-0.70;82.50
25352;DHT22;13304;48.464;8.712;2024-01-10T09:10:25;-0.70;82.50
25352;DHT22;13304;48.464;8.712;2024-01-10T09:12:54;-0.70;82.50
25352;DHT22;13304;48.464;8.712;2024-01-10T09:15:19;-0.60;82.50
25352;DHT22;13304;48.464;8.712;2024-01-10T09:17:45;-0.60;82.60
25352;DHT22;13304;48.464;8.712;2024-01-10T09:20:12;-0.50;82.60
25352;DHT22;13304;48.464;8.712;2024-01-10T09:22:38;-0.50;82.70
25352;DHT22;13304;48.464;8.712;2024-01-10T09:25:05;-0.40;82.90
25352;DHT22;13304;48.464;8.712;2024-01-10T09:27:34;-0.40;82.80
25352;DHT22;13304;48.464;8.712;2024-01-10T09:30:00;-0.40;82.70
25352;DHT22;13304;48.464;8.712;2024-01-10T09:32:27;-0.40;81.80
25352;DHT22;13304;48.464;8.712;2024-01-10T09:34:57;-0.30;82.40
25352;DHT22;13304;48.464;8.712;2024-01-10T09:37:23;-0.20;83.50
25352;DHT22;13304;48.464;8.712;2024-01-10T09:39:49;-0.20;82.40
25352;DHT22;13304;48.464;8.712;2024-01-10T09:42:15;-0.20;82.40
25352;DHT22;13304;48.464;8.712;2024-01-10T09:44:41;-0.10;82.40
25352;DHT22;13304;48.464;8.712;2024-01-10T09:47:07;-0.10;82.00
25352;DHT22;13304;48.464;8.712;2024-01-10T09:49:34;-0.10;82.50
25352;DHT22;13304;48.464;8.712;2024-01-10T09:52:03;-0.10;81.60
25352;DHT22;13304;48.464;8.712;2024-01-10T09:54:31;-0.10;81.50
25352;DHT22;13304;48.464;8.712;2024-01-10T09:56:57;0.00;81.20
25352;DHT22;13304;48.464;8.712;2024-01-10T09:59:24;0.00;81.70
25352;DHT22;13304;48.464;8.712;2024-01-10T10:01:52;0.00;81.40
25352;DHT22;13304;48.464;8.712;2024-01-10T10:04:18;0.10;81.30
25352;DHT22;13304;48.464;8.712;2024-01-10T10:06:45;0.10;82.00
25352;DHT22;13304;48.464;8.712;2024-01-10T10:09:12;0.20;82.00
25352;DHT22;13304;48.464;8.712;2024-01-10T10:11:38;0.20;81.80
25352;DHT22;13304;48.464;8.712;2024-01-10T10:14:17;0.30;81.60
25352;DHT22;13304;48.464;8.712;2024-01-10T10:16:43;0.30;81.20
25352;DHT22;13304;48.464;8.712;2024-01-10T10:19:09;0.30;81.40
25352;DHT22;13304;48.464;8.712;2024-01-10T10:21:36;0.40;81.20
25352;DHT22;13304;48.464;8.712;2024-01-10T10:24:03;0.40;81.20
25352;DHT22;13304;48.464;8.712;2024-01-10T10:26:34;0.50;81.60
25352;DHT22;13304;48.464;8.712;2024-01-10T10:29:00;0.50;80.70
25352;DHT22;13304;48.464;8.712;2024-01-10T10:31:26;0.50;80.30
25352;DHT22;13304;48.464;8.712;2024-01-10T10:33:52;0.60;81.20
25352;DHT22;13304;48.464;8.712;2024-01-10T10:36:19;0.60;81.00
25352;DHT22;13304;48.464;8.712;2024-01-10T10:38:47;0.70;81.30
25352;DHT22;13304;48.464;8.712;2024-01-10T10:41:14;0.70;81.30
25352;DHT22;13304;48.464;8.712;2024-01-10T10:43:40;0.70;81.20
25352;DHT22;13304;48.464;8.712;2024-01-10T10:46:10;0.80;81.20
25352;DHT22;13304;48.464;8.712;2024-01-10T10:48:38;0.80;81.30
25352;DHT22;13304;48.464;8.712;2024-01-10T10:51:19;0.80;81.00
25352;DHT22;13304;48.464;8.712;2024-01-10T10:53:49;0.90;80.80
25352;DHT22;13304;48.464;8.712;2024-01-10T10:56:16;0.90;80.30
25352;DHT22;13304;48.464;8.712;2024-01-10T10:58:43;0.90;80.40
25352;DHT22;13304;48.464;8.712;2024-01-10T11:01:12;0.90;80.80
25352;DHT22;13304;48.464;8.712;2024-01-10T11:03:40;1.00;81.00
25352;DHT22;13304;48.464;8.712;2024-01-10T11:06:07;1.00;81.30
25352;DHT22;13304;48.464;8.712;2024-01-10T11:11:06;1.10;81.20
25352;DHT22;13304;48.464;8.712;2024-01-10T11:14:04;1.10;81.40
25352;DHT22;13304;48.464;8.712;2024-01-10T11:16:51;1.10;82.20
25352;DHT22;13304;48.464;8.712;2024-01-10T11:22:04;1.20;81.70
25352;DHT22;13304;48.464;8.712;2024-01-10T11:24:33;1.20;81.20
25352;DHT22;13304;48.464;8.712;2024-01-10T11:27:12;1.20;81.20
25352;DHT22;13304;48.464;8.712;2024-01-10T11:29:39;1.20;81.20
25352;DHT22;13304;48.464;8.712;2024-01-10T11:32:06;1.30;81.50
25352;DHT22;13304;48.464;8.712;2024-01-10T11:34:35;1.30;81.50
25352;DHT22;13304;48.464;8.712;2024-01-10T11:37:11;1.30;81.50
25352;DHT22;13304;48.464;8.712;2024-01-10T11:39:37;1.30;81.50
25352;DHT22;13304;48.464;8.712;2024-01-10T11:42:03;1.40;81.70
25352;DHT22;13304;48.464;8.712;2024-01-10T11:44:29;1.40;81.70
25352;DHT22;13304;48.464;8.712;2024-01-10T11:46:57;1.40;81.60
25352;DHT22;13304;48.464;8.712;2024-01-10T11:49:24;1.40;81.70
25352;DHT22;13304;48.464;8.712;2024-01-10T11:51:57;1.40;81.70
25352;DHT22;13304;48.464;8.712;2024-01-10T11:54:40;1.40;81.90
25352;DHT22;13304;48.464;8.712;2024-01-10T11:57:22;1.40;81.80
25352;DHT22;13304;48.464;8.712;2024-01-10T11:59:52;1.40;82.00
25352;DHT22;13304;48.464;8.712;2024-01-10T12:02:18;1.40;82.10
25352;DHT22;13304;48.464;8.712;2024-01-10T12:04:45;1.50;82.20
25352;DHT22;13304;48.464;8.712;2024-01-10T12:07:15;1.50;82.30
25352;DHT22;13304;48.464;8.712;2024-01-10T12:09:41;1.50;82.40
25352;DHT22;13304;48.464;8.712;2024-01-10T12:12:10;1.50;82.40
25352;DHT22;13304;48.464;8.712;2024-01-10T12:14:39;1.50;82.40
25352;DHT22;13304;48.464;8.712;2024-01-10T12:17:06;1.60;82.60
25352;DHT22;13304;48.464;8.712;2024-01-10T12:19:35;1.60;82.50
25352;DHT22;13304;48.464;8.712;2024-01-10T12:22:04;1.60;83.40
25352;DHT22;13304;48.464;8.712;2024-01-10T12:24:31;1.60;82.50
25352;DHT22;13304;48.464;8.712;2024-01-10T12:26:57;1.70;82.80
25352;DHT22;13304;48.464;8.712;2024-01-10T12:29:23;1.70;82.70
25352;DHT22;13304;48.464;8.712;2024-01-10T12:31:51;1.70;82.80
25352;DHT22;13304;48.464;8.712;2024-01-10T12:34:16;1.70;82.80
25352;DHT22;13304;48.464;8.712;2024-01-10T12:36:42;1.80;82.90
25352;DHT22;13304;48.464;8.712;2024-01-10T12:39:09;1.80;83.00
25352;DHT22;13304;48.464;8.712;2024-01-10T12:41:35;1.80;83.00
25352;DHT22;13304;48.464;8.712;2024-01-10T12:44:01;1.90;83.10
25352;DHT22;13304;48.464;8.712;2024-01-10T12:46:30;1.90;83.00
25352;DHT22;13304;48.464;8.712;2024-01-10T12:49:04;1.80;82.80
25352;DHT22;13304;48.464;8.712;2024-01-10T12:51:31;1.90;83.10
25352;DHT22;13304;48.464;8.712;2024-01-10T12:53:58;1.90;83.00
25352;DHT22;13304;48.464;8.712;2024-01-10T12:56:24;2.00;83.10
25352;DHT22;13304;48.464;8.712;2024-01-10T12:58:50;2.00;83.90
25352;DHT22;13304;48.464;8.712;2024-01-10T13:01:16;2.00;83.20
25352;DHT22;13304;48.464;8.712;2024-01-10T13:03:42;2.00;83.20
25352;DHT22;13304;48.464;8.712;2024-01-10T13:06:10;2.10;83.30
25352;DHT22;13304;48.464;8.712;2024-01-10T13:08:37;2.10;83.20
25352;DHT22;13304;48.464;8.712;2024-01-10T13:11:03;2.10;83.20
25352;DHT22;13304;48.464;8.712;2024-01-10T13:13:39;2.10;83.20
25352;DHT22;13304;48.464;8.712;2024-01-10T13:16:05;2.10;83.10
25352;DHT22;13304;48.464;8.712;2024-01-10T13:18:31;2.10;83.10
25352;DHT22;13304;48.464;8.712;2024-01-10T13:20:57;2.20;83.20
25352;DHT22;13304;48.464;8.712;2024-01-10T13:23:23;2.20;83.40
25352;DHT22;13304;48.464;8.712;2024-01-10T13:25:50;2.20;83.30
25352;DHT22;13304;48.464;8.712;2024-01-10T13:28:16;2.20;83.40
25352;DHT22;13304;48.464;8.712;2024-01-10T13:30:42;2.20;83.40
25352;DHT22;13304;48.464;8.712;2024-01-10T13:33:09;2.20;83.20
25352;DHT22;13304;48.464;8.712;2024-01-10T13:35:35;2.30;83.40
25352;DHT22;13304;48.464;8.712;2024-01-10T13:38:01;2.30;83.60
25352;DHT22;13304;48.464;8.712;2024-01-10T13:40:26;2.30;83.50
25352;DHT22;13304;48.464;8.712;2024-01-10T13:42:53;2.30;83.60
25352;DHT22;13304;48.464;8.712;2024-01-10T13:45:19;2.30;83.60
25352;DHT22;13304;48.464;8.712;2024-01-10T13:47:45;2.40;83.60
25352;DHT22;13304;48.464;8.712;2024-01-10T13:50:11;2.40;83.60
25352;DHT22;13304;48.464;8.712;2024-01-10T13:52:37;2.40;83.70
25352;DHT22;13304;48.464;8.712;2024-01-10T13:55:03;2.40;83.50
25352;DHT22;13304;48.464;8.712;2024-01-10T13:57:32;2.40;83.60
25352;DHT22;13304;48.464;8.712;2024-01-10T13:59:58;2.40;83.60
25352;DHT22;13304;48.464;8.712;2024-01-10T14:02:24;2.40;83.50
25352;DHT22;13304;48.464;8.712;2024-01-10T14:04:51;2.40;83.30
25352;DHT22;13304;48.464;8.712;2024-01-10T14:07:17;2.40;83.40
25352;DHT22;13304;48.464;8.712;2024-01-10T14:09:43;2.40;83.20
25352;DHT22;13304;48.464;8.712;2024-01-10T14:12:09;2.40;83.10
25352;DHT22;13304;48.464;8.712;2024-01-10T14:14:34;2.40;83.00
25352;DHT22;13304;48.464;8.712;2024-01-10T14:17:00;2.40;83.10
25352;DHT22;13304;48.464;8.712;2024-01-10T14:19:26;2.40;83.00
25352;DHT22;13304;48.464;8.712;2024-01-10T14:21:52;2.40;83.00
25352;DHT22;13304;48.464;8.712;2024-01-10T14:24:18;2.40;82.80
25352;DHT22;13304;48.464;8.712;2024-01-10T14:26:43;2.40;82.90
25352;DHT22;13304;48.464;8.712;2024-01-10T14:29:09;2.40;82.90
25352;DHT22;13304;48.464;8.712;2024-01-10T14:31:36;2.40;82.90
25352;DHT22;13304;48.464;8.712;2024-01-10T14:34:02;2.40;83.00
25352;DHT22;13304;48.464;8.712;2024-01-10T14:36:28;2.40;83.00
25352;DHT22;13304;48.464;8.712;2024-01-10T14:38:53;2.40;82.70
25352;DHT22;13304;48.464;8.712;2024-01-10T14:41:20;2.40;82.80
25352;DHT22;13304;48.464;8.712;2024-01-10T14:43:46;2.40;82.90
25352;DHT22;13304;48.464;8.712;2024-01-10T14:46:12;2.40;82.90
25352;DHT22;13304;48.464;8.712;2024-01-10T14:48:37;2.40;83.00
25352;DHT22;13304;48.464;8.712;2024-01-10T14:51:03;2.40;83.10
25352;DHT22;13304;48.464;8.712;2024-01-10T14:53:32;2.40;83.10
25352;DHT22;13304;48.464;8.712;2024-01-10T14:56:00;2.40;82.90
25352;DHT22;13304;48.464;8.712;2024-01-10T14:58:26;2.40;83.10
25352;DHT22;13304;48.464;8.712;2024-01-10T15:00:52;2.40;83.00
25352;DHT22;13304;48.464;8.712;2024-01-10T15:03:17;2.40;83.20
25352;DHT22;13304;48.464;8.712;2024-01-10T15:05:43;2.40;83.00
25352;DHT22;13304;48.464;8.712;2024-01-10T15:08:09;2.40;83.00
25352;DHT22;13304;48.464;8.712;2024-01-10T15:10:36;2.30;83.10
25352;DHT22;13304;48.464;8.712;2024-01-10T15:13:02;2.30;83.10
25352;DHT22;13304;48.464;8.712;2024-01-10T15:15:29;2.30;83.10
25352;DHT22;13304;48.464;8.712;2024-01-10T15:17:55;2.30;83.10
25352;DHT22;13304;48.464;8.712;2024-01-10T15:20:20;2.30;83.30
25352;DHT22;13304;48.464;8.712;2024-01-10T15:22:47;2.30;83.30
25352;DHT22;13304;48.464;8.712;2024-01-10T15:25:13;2.20;83.20
25352;DHT22;13304;48.464;8.712;2024-01-10T15:27:38;2.20;83.20
25352;DHT22;13304;48.464;8.712;2024-01-10T15:30:05;2.20;83.20
25352;DHT22;13304;48.464;8.712;2024-01-10T15:32:31;2.20;83.20
25352;DHT22;13304;48.464;8.712;2024-01-10T15:34:56;2.20;83.20
25352;DHT22;13304;48.464;8.712;2024-01-10T15:37:23;2.20;83.10
25352;DHT22;13304;48.464;8.712;2024-01-10T15:39:49;2.20;83.20